sensor_id;sensor_type;location;lat;lon;timestamp;pressure;altitude;pressure_sealevel;temperature;humidity
22241;BME280;11289;52.524;13.694;2022-12-18T00:01:03;102634.25;;;-4.89;82.27
22241;BME280;11289;52.524;13.694;2022-12-18T00:03:34;102637.09;;;-4.82;82.20
22241;BME280;11289;52.524;13.694;2022-12-18T00:06:01;102643.03;;;-4.87;81.96
22241;BME280;11289;52.524;13.694;2022-12-18T00:08:27;102648.97;;;-4.83;82.05
22241;BME280;11289;52.524;13.694;2022-12-18T00:10:53;102646.44;;;-4.85;81.58
22241;BME280;11289;52.524;13.694;2022-12-18T00:13:18;102649.53;;;-4.96;81.27
22241;BME280;11289;52.524;13.694;2022-12-18T00:15:44;102657.69;;;-4.96;81.67
22241;BME280;11289;52.524;13.694;2022-12-18T00:18:09;102657.34;;;-5.01;81.86
22241;BME280;11289;52.524;13.694;2022-12-18T00:20:39;102673.75;;;-4.95;81.89
22241;BME280;11289;52.524;13.694;2022-12-18T00:23:06;102669.69;;;-4.91;81.83
22241;BME280;11289;52.524;13.694;2022-12-18T00:25:35;102672.22;;;-4.89;82.16
22241;BME280;11289;52.524;13.694;2022-12-18T00:28:02;102670.69;;;-4.92;81.32
22241;BME280;11289;52.524;13.694;2022-12-18T00:30:28;102667.97;;;-4.92;81.57
22241;BME280;11289;52.524;13.694;2022-12-18T00:32:53;102666.16;;;-4.99;81.42
22241;BME280;11289;52.524;13.694;2022-12-18T00:35:19;102660.41;;;-5.04;81.56
22241;BME280;11289;52.524;13.694;2022-12-18T00:37:44;102641.66;;;-5.14;81.42
22241;BME280;11289;52.524;13.694;2022-12-18T00:40:10;102652.31;;;-5.13;81.89
22241;BME280;11289;52.524;13.694;2022-12-18T00:42:35;102626.28;;;-5.22;81.69
22241;BME280;11289;52.524;13.694;2022-12-18T00:45:19;102654.00;;;-5.12;81.49
22241;BME280;11289;52.524;13.694;2022-12-18T00:47:45;102653.66;;;-5.09;81.50
22241;BME280;11289;52.524;13.694;2022-12-18T00:50:10;102658.41;;;-5.11;81.31
22241;BME280;11289;52.524;13.694;2022-12-18T00:52:36;102661.16;;;-5.19;81.15
22241;BME280;11289;52.524;13.694;2022-12-18T00:55:01;102628.72;;;-5.35;81.32
22241;BME280;11289;52.524;13.694;2022-12-18T00:57:26;102648.13;;;-5.23;81.40
22241;BME280;11289;52.524;13.694;2022-12-18T00:59:52;102642.06;;;-5.26;81.86
22241;BME280;11289;52.524;13.694;2022-12-18T01:02:17;102636.84;;;-5.35;81.20
22241;BME280;11289;52.524;13.694;2022-12-18T01:04:42;102643.97;;;-5.34;81.48
22241;BME280;11289;52.524;13.694;2022-12-18T01:07:08;102622.50;;;-5.44;81.18
22241;BME280;11289;52.524;13.694;2022-12-18T01:09:33;102635.53;;;-5.48;80.90
22241;BME280;11289;52.524;13.694;2022-12-18T01:11:59;102651.41;;;-5.36;81.51
22241;BME280;11289;52.524;13.694;2022-12-18T01:14:25;102654.94;;;-5.36;81.39
22241;BME280;11289;52.524;13.694;2022-12-18T01:16:50;102661.25;;;-5.44;80.89
22241;BME280;11289;52.524;13.694;2022-12-18T01:19:15;102653.66;;;-5.48;81.35
22241;BME280;11289;52.524;13.694;2022-12-18T01:21:41;102662.44;;;-5.46;81.56
22241;BME280;11289;52.524;13.694;2022-12-18T01:24:06;102661.94;;;-5.50;81.22
22241;BME280;11289;52.524;13.694;2022-12-18T01:26:32;102663.47;;;-5.47;81.73
22241;BME280;11289;52.524;13.694;2022-12-18T01:28:57;102658.88;;;-5.47;81.93
22241;BME280;11289;52.524;13.694;2022-12-18T01:31:28;102675.78;;;-5.36;81.89
22241;BME280;11289;52.524;13.694;2022-12-18T01:33:54;102663.59;;;-5.40;81.30
22241;BME280;11289;52.524;13.694;2022-12-18T01:36:22;102685.59;;;-5.35;81.45
22241;BME280;11289;52.524;13.694;2022-12-18T01:38:48;102667.84;;;-5.46;80.95
22241;BME280;11289;52.524;13.694;2022-12-18T01:41:16;102688.50;;;-5.37;81.35
22241;BME280;11289;52.524;13.694;2022-12-18T01:46:17;102687.31;;;-5.43;80.97
22241;BME280;11289;52.524;13.694;2022-12-18T01:48:45;102692.38;;;-5.39;81.19
22241;BME280;11289;52.524;13.694;2022-12-18T01:51:12;102680.56;;;-5.47;80.61
22241;BME280;11289;52.524;13.694;2022-12-18T01:53:39;102686.78;;;-5.46;81.39
22241;BME280;11289;52.524;13.694;2022-12-18T01:56:05;102681.72;;;-5.49;80.98
22241;BME280;11289;52.524;13.694;2022-12-18T01:59:00;102682.59;;;-5.49;81.17
22241;BME280;11289;52.524;13.694;2022-12-18T02:01:29;102689.00;;;-5.42;81.19
22241;BME280;11289;52.524;13.694;2022-12-18T02:03:55;102685.63;;;-5.52;80.74
22241;BME280;11289;52.524;13.694;2022-12-18T02:06:23;102681.25;;;-5.61;81.06
22241;BME280;11289;52.524;13.694;2022-12-18T02:09:09;102684.66;;;-5.67;81.30
22241;BME280;11289;52.524;13.694;2022-12-18T02:11:49;102673.50;;;-5.72;81.71
22241;BME280;11289;52.524;13.694;2022-12-18T02:14:27;102667.25;;;-5.73;81.32
22241;BME280;11289;52.524;13.694;2022-12-18T02:17:22;102683.31;;;-5.63;81.40
22241;BME280;11289;52.524;13.694;2022-12-18T02:22:54;102690.38;;;-5.62;81.33
22241;BME280;11289;52.524;13.694;2022-12-18T02:27:56;102698.03;;;-5.66;81.06
22241;BME280;11289;52.524;13.694;2022-12-18T02:30:24;102692.25;;;-5.71;80.58
22241;BME280;11289;52.524;13.694;2022-12-18T02:32:52;102703.63;;;-5.75;81.13
22241;BME280;11289;52.524;13.694;2022-12-18T02:35:23;102709.88;;;-5.75;81.53
22241;BME280;11289;52.524;13.694;2022-12-18T02:37:53;102704.63;;;-5.77;81.12
22241;BME280;11289;52.524;13.694;2022-12-18T02:40:19;102711.72;;;-5.75;81.32
22241;BME280;11289;52.524;13.694;2022-12-18T02:42:46;102708.03;;;-5.74;81.08
22241;BME280;11289;52.524;13.694;2022-12-18T02:45:11;102709.53;;;-5.72;81.45
22241;BME280;11289;52.524;13.694;2022-12-18T02:47:39;102707.00;;;-5.73;81.38
22241;BME280;11289;52.524;13.694;2022-12-18T02:55:13;102726.78;;;-5.73;81.31
22241;BME280;11289;52.524;13.694;2022-12-18T03:00:34;102719.19;;;-5.78;80.89
22241;BME280;11289;52.524;13.694;2022-12-18T03:03:19;102732.03;;;-5.71;81.36
22241;BME280;11289;52.524;13.694;2022-12-18T03:06:10;102729.31;;;-5.71;81.06
22241;BME280;11289;52.524;13.694;2022-12-18T03:08:40;102730.69;;;-5.67;81.04
22241;BME280;11289;52.524;13.694;2022-12-18T03:11:12;102727.81;;;-5.74;80.54
22241;BME280;11289;52.524;13.694;2022-12-18T03:13:51;102725.97;;;-5.73;80.66
22241;BME280;11289;52.524;13.694;2022-12-18T03:16:25;102740.16;;;-5.71;81.04
22241;BME280;11289;52.524;13.694;2022-12-18T03:19:01;102741.00;;;-5.71;80.47
22241;BME280;11289;52.524;13.694;2022-12-18T03:21:42;102735.44;;;-5.78;80.42
22241;BME280;11289;52.524;13.694;2022-12-18T03:24:09;102734.38;;;-5.77;80.36
22241;BME280;11289;52.524;13.694;2022-12-18T03:26:37;102739.66;;;-5.75;80.04
22241;BME280;11289;52.524;13.694;2022-12-18T03:29:08;102731.53;;;-5.83;80.58
22241;BME280;11289;52.524;13.694;2022-12-18T03:31:40;102738.13;;;-5.78;80.36
22241;BME280;11289;52.524;13.694;2022-12-18T03:34:17;102729.66;;;-5.83;80.01
22241;BME280;11289;52.524;13.694;2022-12-18T03:36:45;102727.31;;;-5.86;80.17
22241;BME280;11289;52.524;13.694;2022-12-18T03:39:10;102716.19;;;-5.99;80.17
22241;BME280;11289;52.524;13.694;2022-12-18T03:41:51;102719.34;;;-5.96;80.42
22241;BME280;11289;52.524;13.694;2022-12-18T03:47:09;102731.53;;;-5.91;80.60
22241;BME280;11289;52.524;13.694;2022-12-18T03:55:07;102716.66;;;-6.20;80.61
22241;BME280;11289;52.524;13.694;2022-12-18T03:57:33;102720.22;;;-6.20;81.05
22241;BME280;11289;52.524;13.694;2022-12-18T04:00:05;102728.53;;;-6.21;81.18
22241;BME280;11289;52.524;13.694;2022-12-18T04:02:31;102731.22;;;-6.21;81.62
22241;BME280;11289;52.524;13.694;2022-12-18T04:05:00;102722.25;;;-6.22;81.43
22241;BME280;11289;52.524;13.694;2022-12-18T04:07:28;102715.34;;;-6.24;80.96
22241;BME280;11289;52.524;13.694;2022-12-18T04:09:56;102727.31;;;-6.10;81.08
22241;BME280;11289;52.524;13.694;2022-12-18T04:12:26;102722.25;;;-6.14;80.81
22241;BME280;11289;52.524;13.694;2022-12-18T04:14:52;102740.88;;;-6.02;80.86
22241;BME280;11289;52.524;13.694;2022-12-18T04:17:17;102745.41;;;-6.19;80.54
22241;BME280;11289;52.524;13.694;2022-12-18T04:19:43;102729.00;;;-6.26;81.13
22241;BME280;11289;52.524;13.694;2022-12-18T04:22:12;102727.00;;;-6.24;81.00
22241;BME280;11289;52.524;13.694;2022-12-18T04:24:37;102712.94;;;-6.36;80.94
22241;BME280;11289;52.524;13.694;2022-12-18T04:27:03;102739.16;;;-6.28;80.95
22241;BME280;11289;52.524;13.694;2022-12-18T04:29:28;102734.09;;;-6.23;81.14
22241;BME280;11289;52.524;13.694;2022-12-18T04:31:54;102739.84;;;-6.18;80.88
22241;BME280;11289;52.524;13.694;2022-12-18T04:34:20;102750.84;;;-6.11;80.63
22241;BME280;11289;52.524;13.694;2022-12-18T04:36:46;102753.88;;;-6.14;80.37
22241;BME280;11289;52.524;13.694;2022-12-18T04:39:11;102742.69;;;-6.27;80.57
22241;BME280;11289;52.524;13.694;2022-12-18T04:41:37;102762.66;;;-6.28;80.34
22241;BME280;11289;52.524;13.694;2022-12-18T04:44:02;102752.81;;;-6.38;80.90
22241;BME280;11289;52.524;13.694;2022-12-18T04:46:28;102750.97;;;-6.37;81.43
22241;BME280;11289;52.524;13.694;2022-12-18T04:48:53;102734.06;;;-6.39;80.97
22241;BME280;11289;52.524;13.694;2022-12-18T04:51:19;102751.31;;;-6.32;80.93
22241;BME280;11289;52.524;13.694;2022-12-18T04:53:44;102763.47;;;-6.36;80.71
22241;BME280;11289;52.524;13.694;2022-12-18T04:56:12;102755.50;;;-6.46;80.73
22241;BME280;11289;52.524;13.694;2022-12-18T04:58:38;102760.41;;;-6.41;80.54
22241;BME280;11289;52.524;13.694;2022-12-18T05:01:05;102744.13;;;-6.58;80.81
22241;BME280;11289;52.524;13.694;2022-12-18T05:03:31;102766.00;;;-6.43;80.89
22241;BME280;11289;52.524;13.694;2022-12-18T05:05:56;102759.56;;;-6.42;80.85
22241;BME280;11289;52.524;13.694;2022-12-18T05:08:22;102760.41;;;-6.41;80.75
22241;BME280;11289;52.524;13.694;2022-12-18T05:10:47;102760.59;;;-6.43;80.52
22241;BME280;11289;52.524;13.694;2022-12-18T05:13:12;102746.38;;;-6.53;80.72
22241;BME280;11289;52.524;13.694;2022-12-18T05:15:38;102757.19;;;-6.45;80.98
22241;BME280;11289;52.524;13.694;2022-12-18T05:18:04;102746.69;;;-6.48;80.80
22241;BME280;11289;52.524;13.694;2022-12-18T05:20:29;102765.13;;;-6.43;80.62
22241;BME280;11289;52.524;13.694;2022-12-18T05:22:55;102752.94;;;-6.56;80.75
22241;BME280;11289;52.524;13.694;2022-12-18T05:25:22;102771.22;;;-6.41;80.31
22241;BME280;11289;52.524;13.694;2022-12-18T05:27:48;102779.69;;;-6.44;80.67
22241;BME280;11289;52.524;13.694;2022-12-18T05:30:14;102787.78;;;-6.44;80.86
22241;BME280;11289;52.524;13.694;2022-12-18T05:32:40;102786.25;;;-6.47;80.69
22241;BME280;11289;52.524;13.694;2022-12-18T05:35:07;102783.19;;;-6.52;81.25
22241;BME280;11289;52.524;13.694;2022-12-18T05:37:33;102794.56;;;-6.40;81.03
22241;BME280;11289;52.524;13.694;2022-12-18T05:39:59;102794.41;;;-6.39;80.92
22241;BME280;11289;52.524;13.694;2022-12-18T05:42:24;102796.94;;;-6.37;81.19
22241;BME280;11289;52.524;13.694;2022-12-18T05:44:50;102787.78;;;-6.36;81.00
22241;BME280;11289;52.524;13.694;2022-12-18T05:47:15;102795.28;;;-6.30;80.63
22241;BME280;11289;52.524;13.694;2022-12-18T05:49:41;102811.13;;;-6.35;80.90
22241;BME280;11289;52.524;13.694;2022-12-18T05:52:06;102791.88;;;-6.40;80.65
22241;BME280;11289;52.524;13.694;2022-12-18T05:54:31;102809.63;;;-6.30;80.49
22241;BME280;11289;52.524;13.694;2022-12-18T05:56:57;102795.75;;;-6.35;80.46
22241;BME280;11289;52.524;13.694;2022-12-18T05:59:23;102805.06;;;-6.37;80.48
22241;BME280;11289;52.524;13.694;2022-12-18T06:01:49;102798.78;;;-6.38;80.39
22241;BME280;11289;52.524;13.694;2022-12-18T06:04:14;102797.41;;;-6.50;80.31
22241;BME280;11289;52.524;13.694;2022-12-18T06:06:39;102812.47;;;-6.48;80.50
22241;BME280;11289;52.524;13.694;2022-12-18T06:09:05;102803.81;;;-6.51;80.64
22241;BME280;11289;52.524;13.694;2022-12-18T06:11:36;102822.78;;;-6.35;81.06
22241;BME280;11289;52.524;13.694;2022-12-18T06:14:03;102813.63;;;-6.42;81.03
22241;BME280;11289;52.524;13.694;2022-12-18T06:16:29;102810.25;;;-6.44;81.07
22241;BME280;11289;52.524;13.694;2022-12-18T06:18:58;102828.03;;;-6.33;80.88
22241;BME280;11289;52.524;13.694;2022-12-18T06:21:24;102842.25;;;-6.31;81.03
22241;BME280;11289;52.524;13.694;2022-12-18T06:23:50;102836.31;;;-6.35;80.86
22241;BME280;11289;52.524;13.694;2022-12-18T06:26:15;102838.00;;;-6.34;80.81
22241;BME280;11289;52.524;13.694;2022-12-18T06:28:41;102844.94;;;-6.31;81.31
22241;BME280;11289;52.524;13.694;2022-12-18T06:31:07;102844.94;;;-6.31;80.89
22241;BME280;11289;52.524;13.694;2022-12-18T06:33:33;102843.09;;;-6.31;80.93
22241;BME280;11289;52.524;13.694;2022-12-18T06:36:03;102854.06;;;-6.32;80.70
22241;BME280;11289;52.524;13.694;2022-12-18T06:38:31;102842.38;;;-6.41;80.97
22241;BME280;11289;52.524;13.694;2022-12-18T06:40:56;102845.06;;;-6.41;80.85
22241;BME280;11289;52.524;13.694;2022-12-18T06:43:22;102855.06;;;-6.33;81.23
22241;BME280;11289;52.524;13.694;2022-12-18T06:45:47;102864.72;;;-6.31;80.99
22241;BME280;11289;52.524;13.694;2022-12-18T06:48:20;102885.50;;;-6.31;81.03
22241;BME280;11289;52.524;13.694;2022-12-18T06:50:46;102870.78;;;-6.37;80.98
22241;BME280;11289;52.524;13.694;2022-12-18T06:53:12;102869.78;;;-6.36;81.20
22241;BME280;11289;52.524;13.694;2022-12-18T06:55:37;102874.69;;;-6.31;81.43
22241;BME280;11289;52.524;13.694;2022-12-18T06:58:03;102890.22;;;-6.33;80.59
22241;BME280;11289;52.524;13.694;2022-12-18T07:00:28;102883.31;;;-6.36;81.07
22241;BME280;11289;52.524;13.694;2022-12-18T07:02:54;102876.34;;;-6.38;80.95
22241;BME280;11289;52.524;13.694;2022-12-18T07:05:19;102870.56;;;-6.43;81.32
22241;BME280;11289;52.524;13.694;2022-12-18T07:07:45;102879.56;;;-6.43;80.73
22241;BME280;11289;52.524;13.694;2022-12-18T07:10:10;102844.25;;;-6.76;80.89
22241;BME280;11289;52.524;13.694;2022-12-18T07:12:36;102888.44;;;-6.51;81.51
22241;BME280;11289;52.524;13.694;2022-12-18T07:15:01;102881.22;;;-6.50;81.67
22241;BME280;11289;52.524;13.694;2022-12-18T07:17:27;102886.28;;;-6.47;81.92
22241;BME280;11289;52.524;13.694;2022-12-18T07:19:52;102856.47;;;-6.63;81.24
22241;BME280;11289;52.524;13.694;2022-12-18T07:22:17;102875.09;;;-6.52;81.88
22241;BME280;11289;52.524;13.694;2022-12-18T07:24:43;102874.75;;;-6.57;81.55
22241;BME280;11289;52.524;13.694;2022-12-18T07:27:08;102885.41;;;-6.56;82.15
22241;BME280;11289;52.524;13.694;2022-12-18T07:29:34;102898.59;;;-6.53;81.78
22241;BME280;11289;52.524;13.694;2022-12-18T07:31:59;102892.69;;;-6.56;82.03
22241;BME280;11289;52.524;13.694;2022-12-18T07:34:24;102899.59;;;-6.54;82.11
22241;BME280;11289;52.524;13.694;2022-12-18T07:36:50;102894.34;;;-6.55;82.43
22241;BME280;11289;52.524;13.694;2022-12-18T07:39:15;102875.19;;;-6.70;82.24
22241;BME280;11289;52.524;13.694;2022-12-18T07:41:40;102884.50;;;-6.65;82.53
22241;BME280;11289;52.524;13.694;2022-12-18T07:44:11;102866.91;;;-6.69;82.69
22241;BME280;11289;52.524;13.694;2022-12-18T07:46:36;102891.47;;;-6.54;82.96
22241;BME280;11289;52.524;13.694;2022-12-18T07:49:02;102886.63;;;-6.50;82.84
22241;BME280;11289;52.524;13.694;2022-12-18T07:51:27;102880.88;;;-6.47;82.97
22241;BME280;11289;52.524;13.694;2022-12-18T07:53:52;102898.47;;;-6.43;82.55
22241;BME280;11289;52.524;13.694;2022-12-18T07:56:19;102888.00;;;-6.38;82.59
22241;BME280;11289;52.524;13.694;2022-12-18T07:58:48;102894.78;;;-6.34;82.78
22241;BME280;11289;52.524;13.694;2022-12-18T08:01:13;102893.25;;;-6.36;82.92
22241;BME280;11289;52.524;13.694;2022-12-18T08:03:40;102904.28;;;-6.30;82.56
22241;BME280;11289;52.524;13.694;2022-12-18T08:06:07;102897.00;;;-6.29;83.17
22241;BME280;11289;52.524;13.694;2022-12-18T08:08:33;102901.78;;;-6.23;82.62
22241;BME280;11289;52.524;13.694;2022-12-18T08:10:59;102890.44;;;-6.26;82.58
22241;BME280;11289;52.524;13.694;2022-12-18T08:13:25;102882.66;;;-6.30;82.79
22241;BME280;11289;52.524;13.694;2022-12-18T08:16:06;102900.75;;;-6.22;82.82
22241;BME280;11289;52.524;13.694;2022-12-18T08:18:36;102883.47;;;-6.29;83.33
22241;BME280;11289;52.524;13.694;2022-12-18T08:21:12;102894.69;;;-6.24;82.96
22241;BME280;11289;52.524;13.694;2022-12-18T08:23:38;102902.13;;;-6.18;83.18
22241;BME280;11289;52.524;13.694;2022-12-18T08:26:04;102891.31;;;-6.18;83.32
22241;BME280;11289;52.524;13.694;2022-12-18T08:28:30;102879.97;;;-6.21;83.14
22241;BME280;11289;52.524;13.694;2022-12-18T08:30:55;102893.84;;;-6.16;83.38
22241;BME280;11289;52.524;13.694;2022-12-18T08:33:21;102891.69;;;-6.13;83.78
22241;BME280;11289;52.524;13.694;2022-12-18T08:35:46;102895.59;;;-6.07;83.63
22241;BME280;11289;52.524;13.694;2022-12-18T08:38:11;102894.38;;;-6.04;83.55
22241;BME280;11289;52.524;13.694;2022-12-18T08:40:37;102862.88;;;-6.22;83.50
22241;BME280;11289;52.524;13.694;2022-12-18T08:43:02;102902.03;;;-6.00;83.60
22241;BME280;11289;52.524;13.694;2022-12-18T08:45:46;102891.69;;;-6.04;83.64
22241;BME280;11289;52.524;13.694;2022-12-18T08:48:11;102906.25;;;-5.97;84.15
22241;BME280;11289;52.524;13.694;2022-12-18T08:50:37;102906.25;;;-5.89;84.01
22241;BME280;11289;52.524;13.694;2022-12-18T08:53:02;102915.91;;;-5.86;84.02
22241;BME280;11289;52.524;13.694;2022-12-18T08:55:28;102918.25;;;-5.91;83.97
22241;BME280;11289;52.524;13.694;2022-12-18T08:57:54;102905.22;;;-5.96;84.11
22241;BME280;11289;52.524;13.694;2022-12-18T09:00:21;102897.75;;;-5.94;84.53
22241;BME280;11289;52.524;13.694;2022-12-18T09:02:47;102918.44;;;-5.77;84.16
22241;BME280;11289;52.524;13.694;2022-12-18T09:05:12;102913.19;;;-5.78;84.20
22241;BME280;11289;52.524;13.694;2022-12-18T09:07:37;102915.06;;;-5.79;84.27
22241;BME280;11289;52.524;13.694;2022-12-18T09:10:04;102886.28;;;-5.96;83.91
22241;BME280;11289;52.524;13.694;2022-12-18T09:12:30;102924.41;;;-5.73;83.73
22241;BME280;11289;52.524;13.694;2022-12-18T09:14:55;102923.38;;;-5.72;84.13
22241;BME280;11289;52.524;13.694;2022-12-18T09:17:22;102933.22;;;-5.63;84.38
22241;BME280;11289;52.524;13.694;2022-12-18T09:19:49;102916.13;;;-5.63;84.75
22241;BME280;11289;52.524;13.694;2022-12-18T09:22:14;102916.47;;;-5.58;83.98
22241;BME280;11289;52.524;13.694;2022-12-18T09:24:39;102920.88;;;-5.57;84.31
22241;BME280;11289;52.524;13.694;2022-12-18T09:27:05;102935.59;;;-5.51;84.48
22241;BME280;11289;52.524;13.694;2022-12-18T09:29:31;102947.09;;;-5.49;84.41
22241;BME280;11289;52.524;13.694;2022-12-18T09:31:57;102932.38;;;-5.55;84.34
22241;BME280;11289;52.524;13.694;2022-12-18T09:34:25;102948.31;;;-5.44;84.58
22241;BME280;11289;52.524;13.694;2022-12-18T09:36:50;102957.28;;;-5.35;84.50
22241;BME280;11289;52.524;13.694;2022-12-18T09:39:15;102943.25;;;-5.38;84.57
22241;BME280;11289;52.524;13.694;2022-12-18T09:41:47;102951.19;;;-5.29;84.52
22241;BME280;11289;52.524;13.694;2022-12-18T09:44:36;102946.78;;;-5.21;84.76
22241;BME280;11289;52.524;13.694;2022-12-18T09:47:24;102945.97;;;-5.14;84.86
22241;BME280;11289;52.524;13.694;2022-12-18T09:49:56;102949.69;;;-5.07;85.11
22241;BME280;11289;52.524;13.694;2022-12-18T09:52:30;102935.13;;;-5.05;84.80
22241;BME280;11289;52.524;13.694;2022-12-18T09:55:25;102929.38;;;-5.02;84.42
22241;BME280;11289;52.524;13.694;2022-12-18T09:58:10;102933.41;;;-4.98;84.38
22241;BME280;11289;52.524;13.694;2022-12-18T10:00:38;102902.09;;;-5.09;84.03
22241;BME280;11289;52.524;13.694;2022-12-18T10:03:10;102893.16;;;-5.10;84.10
22241;BME280;11289;52.524;13.694;2022-12-18T10:08:28;102906.31;;;-4.90;83.96
22241;BME280;11289;52.524;13.694;2022-12-18T10:11:03;102899.72;;;-4.87;84.12
22241;BME280;11289;52.524;13.694;2022-12-18T10:13:49;102880.22;;;-4.91;84.02
22241;BME280;11289;52.524;13.694;2022-12-18T10:22:10;102871.06;;;-4.82;84.19
22241;BME280;11289;52.524;13.694;2022-12-18T10:24:50;102880.56;;;-4.78;84.52
22241;BME280;11289;52.524;13.694;2022-12-18T10:27:23;102882.41;;;-4.70;84.03
22241;BME280;11289;52.524;13.694;2022-12-18T10:29:49;102888.81;;;-4.71;83.73
22241;BME280;11289;52.524;13.694;2022-12-18T10:32:18;102891.72;;;-4.73;84.40
22241;BME280;11289;52.524;13.694;2022-12-18T10:34:49;102881.03;;;-4.74;84.29
22241;BME280;11289;52.524;13.694;2022-12-18T10:37:17;102887.28;;;-4.65;84.01
22241;BME280;11289;52.524;13.694;2022-12-18T10:39:43;102880.84;;;-4.64;84.34
22241;BME280;11289;52.524;13.694;2022-12-18T10:42:17;102860.53;;;-4.77;83.98
22241;BME280;11289;52.524;13.694;2022-12-18T10:44:43;102869.84;;;-4.71;84.08
22241;BME280;11289;52.524;13.694;2022-12-18T10:47:14;102852.09;;;-4.82;84.07
22241;BME280;11289;52.524;13.694;2022-12-18T10:49:47;102868.31;;;-4.74;83.81
22241;BME280;11289;52.524;13.694;2022-12-18T10:52:22;102858.53;;;-4.75;83.95
22241;BME280;11289;52.524;13.694;2022-12-18T10:54:54;102855.66;;;-4.81;83.67
22241;BME280;11289;52.524;13.694;2022-12-18T10:59:56;102849.75;;;-4.93;83.69
22241;BME280;11289;52.524;13.694;2022-12-18T11:02:34;102852.47;;;-4.93;84.08
22241;BME280;11289;52.524;13.694;2022-12-18T11:05:00;102846.34;;;-4.95;84.40
22241;BME280;11289;52.524;13.694;2022-12-18T11:07:49;102852.47;;;-5.01;84.23
22241;BME280;11289;52.524;13.694;2022-12-18T11:10:23;102847.38;;;-5.04;84.88
22241;BME280;11289;52.524;13.694;2022-12-18T11:12:48;102842.16;;;-5.06;84.89
22241;BME280;11289;52.524;13.694;2022-12-18T11:15:25;102846.34;;;-4.95;84.92
22241;BME280;11289;52.524;13.694;2022-12-18T11:17:51;102843.81;;;-4.88;85.08
22241;BME280;11289;52.524;13.694;2022-12-18T11:20:35;102836.19;;;-4.93;85.16
22241;BME280;11289;52.524;13.694;2022-12-18T11:23:10;102848.22;;;-4.96;84.74
22241;BME280;11289;52.524;13.694;2022-12-18T11:25:37;102829.59;;;-4.91;85.38
22241;BME280;11289;52.524;13.694;2022-12-18T11:28:06;102847.69;;;-4.83;84.63
22241;BME280;11289;52.524;13.694;2022-12-18T11:31:19;102837.84;;;-4.84;84.71
22241;BME280;11289;52.524;13.694;2022-12-18T11:34:09;102831.78;;;-4.86;84.93
22241;BME280;11289;52.524;13.694;2022-12-18T11:36:41;102849.22;;;-4.80;85.12
22241;BME280;11289;52.524;13.694;2022-12-18T11:44:50;102848.53;;;-4.82;83.96
22241;BME280;11289;52.524;13.694;2022-12-18T11:50:03;102854.13;;;-4.84;84.31
22241;BME280;11289;52.524;13.694;2022-12-18T11:52:33;102861.75;;;-4.87;84.24
22241;BME280;11289;52.524;13.694;2022-12-18T11:55:10;102858.53;;;-4.83;84.99
22241;BME280;11289;52.524;13.694;2022-12-18T12:00:29;102842.63;;;-4.86;83.98
22241;BME280;11289;52.524;13.694;2022-12-18T12:05:44;102853.28;;;-4.76;84.51
22241;BME280;11289;52.524;13.694;2022-12-18T12:17:12;102859.00;;;-4.63;84.66
22241;BME280;11289;52.524;13.694;2022-12-18T12:20:06;102869.78;;;-4.55;84.64
22241;BME280;11289;52.524;13.694;2022-12-18T12:25:33;102882.84;;;-4.50;83.83
22241;BME280;11289;52.524;13.694;2022-12-18T12:30:54;102877.59;;;-4.51;83.76
22241;BME280;11289;52.524;13.694;2022-12-18T12:49:21;102906.25;;;-4.57;83.80
22241;BME280;11289;52.524;13.694;2022-12-18T12:51:58;102895.25;;;-4.56;84.12
22241;BME280;11289;52.524;13.694;2022-12-18T12:54:25;102899.50;;;-4.61;83.68
22241;BME280;11289;52.524;13.694;2022-12-18T12:57:15;102901.84;;;-4.58;83.93
22241;BME280;11289;52.524;13.694;2022-12-18T12:59:57;102889.47;;;-4.52;83.92
22241;BME280;11289;52.524;13.694;2022-12-18T13:02:36;102889.94;;;-4.49;83.48
22241;BME280;11289;52.524;13.694;2022-12-18T13:07:52;102861.81;;;-4.48;84.04
22241;BME280;11289;52.524;13.694;2022-12-18T13:13:05;102846.69;;;-4.42;83.93
22241;BME280;11289;52.524;13.694;2022-12-18T13:18:22;102846.53;;;-4.49;83.61
22241;BME280;11289;52.524;13.694;2022-12-18T13:28:17;102839.66;;;-4.60;83.53
22241;BME280;11289;52.524;13.694;2022-12-18T13:30:50;102848.44;;;-4.49;84.14
22241;BME280;11289;52.524;13.694;2022-12-18T13:38:36;102868.06;;;-4.47;83.70
22241;BME280;11289;52.524;13.694;2022-12-18T13:41:37;102861.47;;;-4.45;83.68
22241;BME280;11289;52.524;13.694;2022-12-18T13:44:34;102865.50;;;-4.41;83.84
22241;BME280;11289;52.524;13.694;2022-12-18T13:47:00;102865.16;;;-4.38;83.81
22241;BME280;11289;52.524;13.694;2022-12-18T13:49:39;102863.78;;;-4.33;83.56
22241;BME280;11289;52.524;13.694;2022-12-18T13:52:24;102852.59;;;-4.39;83.40
22241;BME280;11289;52.524;13.694;2022-12-18T13:54:56;102845.00;;;-4.43;83.95
22241;BME280;11289;52.524;13.694;2022-12-18T13:57:33;102833.50;;;-4.45;84.04
22241;BME280;11289;52.524;13.694;2022-12-18T14:00:24;102831.00;;;-4.55;83.97
22241;BME280;11289;52.524;13.694;2022-12-18T14:02:50;102821.16;;;-4.56;84.06
22241;BME280;11289;52.524;13.694;2022-12-18T14:05:29;102824.38;;;-4.52;84.86
22241;BME280;11289;52.524;13.694;2022-12-18T14:08:00;102819.31;;;-4.56;84.51
22241;BME280;11289;52.524;13.694;2022-12-18T14:10:26;102816.06;;;-4.59;84.82
22241;BME280;11289;52.524;13.694;2022-12-18T14:12:51;102809.47;;;-4.57;84.33
22241;BME280;11289;52.524;13.694;2022-12-18T14:17:59;102822.00;;;-4.56;84.53
22241;BME280;11289;52.524;13.694;2022-12-18T14:20:29;102811.00;;;-4.54;84.29
22241;BME280;11289;52.524;13.694;2022-12-18T14:22:56;102817.06;;;-4.52;84.58
22241;BME280;11289;52.524;13.694;2022-12-18T14:25:24;102805.91;;;-4.57;84.26
22241;BME280;11289;52.524;13.694;2022-12-18T14:27:53;102800.31;;;-4.56;84.85
22241;BME280;11289;52.524;13.694;2022-12-18T14:35:26;102803.84;;;-4.47;84.84
22241;BME280;11289;52.524;13.694;2022-12-18T14:37:52;102801.66;;;-4.51;84.77
22241;BME280;11289;52.524;13.694;2022-12-18T14:40:17;102788.59;;;-4.56;84.77